createdAt,value
2023-04-17T00:01:37.819Z,66.90
2023-04-17T00:03:50.773Z,66.43
2023-04-17T00:06:03.655Z,64.79
2023-04-17T00:08:16.060Z,65.26
2023-04-17T00:10:29.009Z,65.71
2023-04-17T00:12:41.840Z,65.37
2023-04-17T00:14:54.579Z,64.91
2023-04-17T00:17:07.197Z,65.32
2023-04-17T00:19:19.721Z,65.11
2023-04-17T00:21:33.386Z,64.97
2023-04-17T00:23:46.967Z,64.43
2023-04-17T00:25:59.615Z,64.97
2023-04-17T00:28:12.229Z,65.65
2023-04-17T00:30:25.493Z,66.12
2023-04-17T00:32:38.815Z,66.00
2023-04-17T00:34:54.421Z,65.88
2023-04-17T00:37:08.580Z,65.84
2023-04-17T00:39:21.040Z,65.76
2023-04-17T00:41:33.642Z,65.74
2023-04-17T00:43:46.530Z,65.63
2023-04-17T00:45:59.909Z,65.36
2023-04-17T00:48:14.478Z,65.28
2023-04-17T00:50:27.723Z,65.09
2023-04-17T00:52:41.775Z,64.89
2023-04-17T00:54:54.505Z,64.52
2023-04-17T00:57:07.603Z,64.28
2023-04-17T00:59:22.670Z,63.94
2023-04-17T01:01:35.290Z,63.72
2023-04-17T01:03:48.563Z,63.44
2023-04-17T01:06:02.526Z,63.20
2023-04-17T01:08:17.552Z,62.75
2023-04-17T01:10:30.428Z,62.49
2023-04-17T01:12:47.535Z,62.19
2023-04-17T01:15:01.278Z,61.90
2023-04-17T01:17:15.435Z,61.77
2023-04-17T01:19:30.072Z,61.55
2023-04-17T01:21:42.766Z,60.98
2023-04-17T01:23:57.429Z,60.88
2023-04-17T01:26:15.690Z,60.42
2023-04-17T01:28:28.370Z,60.05
2023-04-17T01:30:41.366Z,59.84
2023-04-17T01:32:57.546Z,59.49
2023-04-17T01:35:10.807Z,59.25
2023-04-17T01:37:24.645Z,58.93
2023-04-17T01:39:37.267Z,58.19
2023-04-17T01:41:50.024Z,57.48
2023-04-17T01:44:02.808Z,56.65
2023-04-17T01:46:15.949Z,56.26
2023-04-17T01:48:29.007Z,55.48
2023-04-17T01:50:41.932Z,55.85
2023-04-17T01:52:54.712Z,55.92
2023-04-17T01:55:09.068Z,56.14
2023-04-17T01:57:22.474Z,55.98
2023-04-17T01:59:35.441Z,56.16
2023-04-17T02:01:49.247Z,56.15
2023-04-17T02:04:02.767Z,56.33
2023-04-17T02:06:15.842Z,56.18
2023-04-17T02:08:30.917Z,56.24
2023-04-17T02:10:44.827Z,56.36
2023-04-17T02:12:57.953Z,56.62
2023-04-17T02:15:13.211Z,56.66
2023-04-17T02:17:26.112Z,56.64
2023-04-17T02:19:38.742Z,56.30
2023-04-17T02:21:51.457Z,56.05
2023-04-17T02:24:04.038Z,55.99
2023-04-17T02:26:17.611Z,56.33
2023-04-17T02:28:30.510Z,56.24
2023-04-17T02:30:48.153Z,56.24
2023-04-17T02:33:01.402Z,55.65
2023-04-17T02:35:14.990Z,55.37
2023-04-17T02:37:27.880Z,55.86
2023-04-17T02:39:40.571Z,55.69
2023-04-17T02:41:53.338Z,55.68
2023-04-17T02:44:06.770Z,55.94
2023-04-17T02:46:19.344Z,55.43
2023-04-17T02:48:31.934Z,55.73
2023-04-17T02:50:44.541Z,55.61
2023-04-17T02:53:02.389Z,55.50
2023-04-17T02:55:16.528Z,55.59
2023-04-17T02:57:29.493Z,55.50
2023-04-17T02:59:42.477Z,55.89
2023-04-17T03:01:55.068Z,55.48
2023-04-17T03:04:07.886Z,55.36
2023-04-17T03:06:20.373Z,55.31
2023-04-17T03:08:36.882Z,55.32
2023-04-17T03:10:49.708Z,55.30
2023-04-17T03:13:04.469Z,55.43
2023-04-17T03:15:18.397Z,55.58
2023-04-17T03:17:31.536Z,55.36
2023-04-17T03:19:45.266Z,55.34
2023-04-17T03:21:58.483Z,55.01
2023-04-17T03:24:13.935Z,54.98
2023-04-17T03:26:26.834Z,54.83
2023-04-17T03:28:40.333Z,54.86
2023-04-17T03:30:53.019Z,55.01
2023-04-17T03:33:06.118Z,54.85
2023-04-17T03:35:18.898Z,54.63
2023-04-17T03:37:33.170Z,54.47
2023-04-17T03:39:45.951Z,54.46
2023-04-17T03:42:00.554Z,54.20
2023-04-17T03:44:14.328Z,54.56
2023-04-17T03:46:27.493Z,54.53
2023-04-17T03:48:40.607Z,54.64
2023-04-17T03:50:54.385Z,54.34
2023-04-17T03:53:08.074Z,54.31
2023-04-17T03:55:21.041Z,54.33
2023-04-17T03:57:34.804Z,54.42
2023-04-17T03:59:49.042Z,54.78
2023-04-17T04:02:02.607Z,54.61
2023-04-17T04:04:18.253Z,54.63
2023-04-17T04:06:32.711Z,55.27
2023-04-17T04:08:46.476Z,55.35
2023-04-17T04:10:59.651Z,55.26
2023-04-17T04:13:19.768Z,55.43
2023-04-17T04:15:37.168Z,55.33
2023-04-17T04:17:50.793Z,55.31
2023-04-17T04:20:03.946Z,55.16
2023-04-17T04:22:16.712Z,55.63
2023-04-17T04:24:36.392Z,55.32
2023-04-17T04:26:50.888Z,55.34
2023-04-17T04:29:03.543Z,55.44
2023-04-17T04:31:32.822Z,55.49
2023-04-17T04:33:47.231Z,55.56
2023-04-17T04:36:02.525Z,55.18
2023-04-17T04:38:16.469Z,55.30
2023-04-17T04:40:31.809Z,55.38
2023-04-17T04:42:51.050Z,55.22
2023-04-17T04:45:10.291Z,55.25
2023-04-17T04:47:23.984Z,55.60
2023-04-17T04:49:36.753Z,55.53
2023-04-17T04:51:49.433Z,55.73
2023-04-17T04:54:03.237Z,55.58
2023-04-17T04:56:16.738Z,55.32
2023-04-17T04:58:31.576Z,55.71
2023-04-17T05:00:46.152Z,55.75
2023-04-17T05:03:04.150Z,55.92
2023-04-17T05:05:17.142Z,56.02
2023-04-17T05:07:30.586Z,55.97
2023-04-17T05:09:44.062Z,55.77
2023-04-17T05:11:58.365Z,56.05
2023-04-17T05:14:12.310Z,55.97
2023-04-17T05:16:24.944Z,56.06
2023-04-17T05:18:38.448Z,56.15
2023-04-17T05:20:52.021Z,56.05
2023-04-17T05:23:05.186Z,55.95
2023-04-17T05:25:18.245Z,56.17
2023-04-17T05:27:31.161Z,55.90
2023-04-17T05:29:44.093Z,56.07
2023-04-17T05:31:57.254Z,55.99
2023-04-17T05:34:26.614Z,56.22
2023-04-17T05:36:39.880Z,56.28
2023-04-17T05:38:54.000Z,56.68
2023-04-17T05:41:08.544Z,56.80
2023-04-17T05:43:22.570Z,56.56
2023-04-17T05:45:37.951Z,56.66
2023-04-17T05:47:53.739Z,56.61
2023-04-17T05:50:06.678Z,56.72
2023-04-17T05:52:19.104Z,56.60
2023-04-17T05:54:32.154Z,56.26
2023-04-17T05:56:44.742Z,56.71
2023-04-17T05:58:57.874Z,56.55
2023-04-17T06:01:11.416Z,56.72
2023-04-17T06:03:25.076Z,56.85
2023-04-17T06:05:45.421Z,56.70
2023-04-17T06:07:58.121Z,56.82
2023-04-17T06:10:11.829Z,56.97
2023-04-17T06:12:24.650Z,56.83
2023-04-17T06:14:38.269Z,56.85
2023-04-17T06:16:51.699Z,57.07
2023-04-17T06:19:05.487Z,56.89
2023-04-17T06:21:18.086Z,57.14
2023-04-17T06:23:31.281Z,56.95
2023-04-17T06:25:44.092Z,57.22
2023-04-17T06:27:58.331Z,57.11
2023-04-17T06:30:13.042Z,57.16
2023-04-17T06:32:34.430Z,57.20
2023-04-17T06:37:08.450Z,57.29
2023-04-17T06:39:24.248Z,57.07
2023-04-17T06:41:36.977Z,57.08
2023-04-17T06:43:49.482Z,57.37
2023-04-17T06:46:02.486Z,57.39
2023-04-17T06:48:18.957Z,57.40
2023-04-17T06:50:32.151Z,57.64
2023-04-17T06:52:44.834Z,57.67
2023-04-17T06:54:58.577Z,57.81
2023-04-17T06:57:11.845Z,57.94
2023-04-17T06:59:24.459Z,58.19
2023-04-17T07:01:39.119Z,58.43
2023-04-17T07:03:52.464Z,58.48
2023-04-17T07:06:05.787Z,58.63
2023-04-17T07:08:20.542Z,58.67
2023-04-17T07:10:33.281Z,58.62
2023-04-17T07:12:46.015Z,58.88
2023-04-17T07:14:59.214Z,59.02
2023-04-17T07:17:12.179Z,59.18
2023-04-17T07:19:25.013Z,59.37
2023-04-17T07:21:37.816Z,59.74
2023-04-17T07:23:50.766Z,59.79
2023-04-17T07:26:03.605Z,59.96
2023-04-17T07:28:16.540Z,60.01
2023-04-17T07:30:29.691Z,60.31
2023-04-17T07:32:43.184Z,60.45
2023-04-17T07:34:56.407Z,60.68
2023-04-17T07:37:09.190Z,60.71
2023-04-17T07:39:22.139Z,60.82
2023-04-17T07:41:35.224Z,60.81
2023-04-17T07:43:48.204Z,60.93
2023-04-17T07:46:01.511Z,60.85
2023-04-17T07:48:14.602Z,60.93
2023-04-17T07:50:27.670Z,60.87
2023-04-17T07:52:40.612Z,61.06
2023-04-17T07:54:53.381Z,61.04
2023-04-17T07:57:06.313Z,61.01
2023-04-17T07:59:19.213Z,61.04
2023-04-17T08:01:33.054Z,61.19
2023-04-17T08:03:45.975Z,61.21
2023-04-17T08:05:59.903Z,61.32
2023-04-17T08:08:12.661Z,61.35
2023-04-17T08:10:28.510Z,61.36
2023-04-17T08:12:41.210Z,61.41
2023-04-17T08:14:53.874Z,61.42
2023-04-17T08:17:08.459Z,61.23
2023-04-17T08:19:21.416Z,61.36
2023-04-17T08:21:34.199Z,61.43
2023-04-17T08:23:46.942Z,61.38
2023-04-17T08:26:01.306Z,61.49
2023-04-17T08:28:13.866Z,61.45
2023-04-17T08:30:26.957Z,61.65
2023-04-17T08:32:46.426Z,61.64
2023-04-17T08:35:00.802Z,61.71
2023-04-17T08:37:13.383Z,61.74
2023-04-17T08:39:26.399Z,61.87
2023-04-17T08:41:42.837Z,61.82
2023-04-17T08:43:55.600Z,61.90
2023-04-17T08:46:09.151Z,62.11
2023-04-17T08:48:21.901Z,62.03
2023-04-17T08:50:35.851Z,62.12
2023-04-17T08:52:49.533Z,62.29
2023-04-17T08:55:04.692Z,62.34
2023-04-17T08:57:17.156Z,62.40
2023-04-17T08:59:29.887Z,62.51
2023-04-17T09:01:43.141Z,62.55
2023-04-17T09:03:57.349Z,62.53
2023-04-17T09:06:11.246Z,62.57
2023-04-17T09:08:25.469Z,62.59
2023-04-17T09:10:44.040Z,62.72
2023-04-17T09:13:06.808Z,62.77
2023-04-17T09:15:26.286Z,62.77
2023-04-17T09:17:41.428Z,62.81
2023-04-17T09:20:12.857Z,62.94
2023-04-17T09:22:26.052Z,62.97
2023-04-17T09:24:41.657Z,63.10
2023-04-17T09:26:54.946Z,62.98
2023-04-17T09:29:14.494Z,63.07
2023-04-17T09:31:36.363Z,63.07
2023-04-17T09:34:02.580Z,62.87
2023-04-17T09:36:28.281Z,62.93
2023-04-17T09:38:45.941Z,63.00
2023-04-17T09:40:58.816Z,63.16
2023-04-17T09:43:13.475Z,62.99
2023-04-17T09:45:29.394Z,63.20
2023-04-17T09:47:42.923Z,63.32
2023-04-17T09:49:56.974Z,63.50
2023-04-17T09:52:10.055Z,63.75
2023-04-17T09:54:24.172Z,63.90
2023-04-17T09:56:38.810Z,64.03
2023-04-17T09:58:51.776Z,64.67
2023-04-17T10:04:05.658Z,64.97
2023-04-17T10:06:39.062Z,65.15
2023-04-17T10:09:02.154Z,65.25
2023-04-17T10:11:25.386Z,65.84
2023-04-17T10:13:41.689Z,65.88
2023-04-17T10:15:57.648Z,65.96
2023-04-17T10:18:30.692Z,66.28
2023-04-17T10:21:27.378Z,66.50
2023-04-17T10:23:49.880Z,66.48
2023-04-17T10:26:45.578Z,66.50
2023-04-17T10:29:19.560Z,66.57
2023-04-17T10:32:30.315Z,66.59
2023-04-17T10:34:46.487Z,66.72
2023-04-17T10:36:59.804Z,66.93
2023-04-17T10:39:51.386Z,66.83
2023-04-17T10:42:26.745Z,66.92
2023-04-17T10:44:42.406Z,67.06
2023-04-17T10:47:08.447Z,67.38
2023-04-17T10:49:32.474Z,67.52
2023-04-17T10:51:48.405Z,67.57
2023-04-17T10:54:16.529Z,67.71
2023-04-17T10:56:33.334Z,67.89
2023-04-17T10:59:05.894Z,68.03
2023-04-17T11:01:58.963Z,67.99
2023-04-17T11:04:35.076Z,68.19
2023-04-17T11:07:08.461Z,68.05
2023-04-17T11:09:41.329Z,68.38
2023-04-17T11:12:15.338Z,68.47
2023-04-17T11:15:01.033Z,68.47
2023-04-17T11:17:27.119Z,68.73
2023-04-17T11:19:51.234Z,68.92
2023-04-17T11:22:24.646Z,69.08
2023-04-17T11:24:58.490Z,69.08
2023-04-17T11:27:15.634Z,68.95
2023-04-17T11:29:48.954Z,69.35
2023-04-17T11:32:16.560Z,69.16
2023-04-17T11:34:49.837Z,69.38
2023-04-17T11:37:22.904Z,69.72
2023-04-17T11:39:56.280Z,69.91
2023-04-17T11:42:33.770Z,70.25
2023-04-17T11:45:14.399Z,70.09
2023-04-17T11:47:50.478Z,70.26
2023-04-17T11:50:03.329Z,70.46
2023-04-17T11:52:22.375Z,70.47
2023-04-17T11:55:03.613Z,70.57
2023-04-17T11:57:25.513Z,70.54
2023-04-17T11:59:48.910Z,70.89
2023-04-17T12:02:35.539Z,70.88
2023-04-17T12:04:48.943Z,71.11
2023-04-17T12:07:29.131Z,71.32
2023-04-17T12:10:00.644Z,71.49
2023-04-17T12:12:26.092Z,71.47
2023-04-17T12:15:00.268Z,71.48
2023-04-17T12:17:15.875Z,71.67
2023-04-17T12:19:49.489Z,71.78
2023-04-17T12:22:12.549Z,71.40
2023-04-17T12:24:35.482Z,71.81
2023-04-17T12:27:08.373Z,71.70
2023-04-17T12:29:40.589Z,71.66
2023-04-17T12:32:07.258Z,71.90
2023-04-17T12:34:40.117Z,71.60
2023-04-17T12:37:12.993Z,71.68
2023-04-17T12:39:39.016Z,72.10
2023-04-17T12:42:01.897Z,72.27
2023-04-17T12:44:34.887Z,72.78
2023-04-17T12:47:07.785Z,72.81
2023-04-17T12:49:40.534Z,72.38
2023-04-17T12:52:03.686Z,72.44
2023-04-17T12:54:37.086Z,72.82
2023-04-17T12:57:08.633Z,72.47
2023-04-17T12:59:41.489Z,72.57
2023-04-17T13:02:05.723Z,72.59
2023-04-17T13:04:38.625Z,73.05
2023-04-17T13:07:11.728Z,72.72
2023-04-17T13:09:35.821Z,72.89
2023-04-17T13:12:08.930Z,72.93
2023-04-17T13:14:42.051Z,72.83
2023-04-17T13:17:17.007Z,73.03
2023-04-17T13:19:34.658Z,73.23
2023-04-17T13:21:47.842Z,73.12
2023-04-17T13:24:17.359Z,73.46
2023-04-17T13:26:50.669Z,73.18
2023-04-17T13:29:23.707Z,73.36
2023-04-17T13:31:36.657Z,73.15
2023-04-17T13:33:53.050Z,73.67
2023-04-17T13:36:25.962Z,73.60
2023-04-17T13:38:39.027Z,73.51
2023-04-17T13:40:53.637Z,73.79
2023-04-17T13:43:07.168Z,73.71
2023-04-17T13:45:30.311Z,73.89
2023-04-17T13:48:03.164Z,73.97
2023-04-17T13:50:36.095Z,74.15
2023-04-17T13:52:52.399Z,74.06
2023-04-17T13:55:05.846Z,73.95
2023-04-17T13:57:38.801Z,73.69
2023-04-17T14:00:13.662Z,73.80
2023-04-17T14:02:46.607Z,73.80
2023-04-17T14:05:11.468Z,73.76
2023-04-17T14:07:44.350Z,73.85
2023-04-17T14:10:08.707Z,73.78
2023-04-17T14:12:22.864Z,73.48
2023-04-17T14:14:39.217Z,72.57
2023-04-17T14:17:02.428Z,72.07
2023-04-17T14:19:26.653Z,70.73
2023-04-17T14:21:50.913Z,69.09
2023-04-17T14:24:07.160Z,66.91
2023-04-17T14:26:41.024Z,66.96
2023-04-17T14:28:54.181Z,65.70
2023-04-17T14:31:06.906Z,64.59
2023-04-17T14:33:39.669Z,61.34
2023-04-17T14:35:57.904Z,61.56
2023-04-17T14:38:31.566Z,60.45
2023-04-17T14:41:04.618Z,59.09
2023-04-17T14:43:37.519Z,56.17
2023-04-17T14:46:10.312Z,55.04
2023-04-17T14:48:41.108Z,54.71
2023-04-17T14:51:22.309Z,55.21
2023-04-17T14:53:45.459Z,54.95
2023-04-17T14:56:56.003Z,55.38
2023-04-17T14:59:09.208Z,54.80
2023-04-17T15:01:42.007Z,53.27
2023-04-17T15:03:58.429Z,53.07
2023-04-17T15:06:31.594Z,50.70
2023-04-17T15:09:04.313Z,49.79
2023-04-17T15:11:17.398Z,49.88
2023-04-17T15:13:30.358Z,49.68
2023-04-17T15:15:54.781Z,48.82
2023-04-17T15:18:17.786Z,46.64
2023-04-17T15:20:50.651Z,46.78
2023-04-17T15:23:04.026Z,47.07
2023-04-17T15:25:30.572Z,46.94
2023-04-17T15:28:03.506Z,47.32
2023-04-17T15:30:18.650Z,48.22
2023-04-17T15:32:50.740Z,48.35
2023-04-17T15:35:14.482Z,49.00
2023-04-17T15:37:38.352Z,49.50
2023-04-17T15:40:03.454Z,49.10
2023-04-17T15:42:19.612Z,49.19
2023-04-17T15:44:36.405Z,49.65
2023-04-17T15:46:52.612Z,49.01
2023-04-17T15:49:09.435Z,47.58
2023-04-17T15:51:32.706Z,48.25
2023-04-17T15:54:05.392Z,48.56
2023-04-17T15:56:38.226Z,47.88
2023-04-17T15:59:03.695Z,48.55
2023-04-17T16:01:37.301Z,47.37
2023-04-17T16:03:54.759Z,46.74
2023-04-17T16:06:17.682Z,47.11
2023-04-17T16:08:30.848Z,47.53
2023-04-17T16:10:47.804Z,48.14
2023-04-17T16:13:00.890Z,48.86
2023-04-17T16:15:33.813Z,49.45
2023-04-17T16:17:46.937Z,49.78
2023-04-17T16:20:06.436Z,49.61
2023-04-17T16:22:19.395Z,48.31
2023-04-17T16:24:38.972Z,48.11
2023-04-17T16:27:12.175Z,48.80
2023-04-17T16:29:35.011Z,48.36
2023-04-17T16:32:08.664Z,47.41
2023-04-17T16:34:41.323Z,47.66
2023-04-17T16:36:54.257Z,47.13
2023-04-17T16:39:10.524Z,47.25
2023-04-17T16:41:43.387Z,47.65
2023-04-17T16:43:59.371Z,47.79
2023-04-17T16:46:26.196Z,48.40
2023-04-17T16:48:51.464Z,48.78
2023-04-17T16:51:08.849Z,49.01
2023-04-17T16:53:22.418Z,49.48
2023-04-17T16:55:35.135Z,49.63
2023-04-17T16:57:49.079Z,49.67
2023-04-17T17:03:01.706Z,48.52
2023-04-17T17:05:36.708Z,48.56
2023-04-17T17:08:09.447Z,49.19
2023-04-17T17:10:22.463Z,49.21
2023-04-17T17:12:45.009Z,49.31
2023-04-17T17:14:57.835Z,49.29
2023-04-17T17:17:31.128Z,49.36
2023-04-17T17:19:43.905Z,49.53
2023-04-17T17:22:07.878Z,50.05
2023-04-17T17:24:30.748Z,49.44
2023-04-17T17:26:46.685Z,49.14
2023-04-17T17:29:09.633Z,49.52
2023-04-17T17:31:31.923Z,49.27
2023-04-17T17:34:16.275Z,49.70
2023-04-17T17:36:38.348Z,50.05
2023-04-17T17:38:56.578Z,49.85
2023-04-17T17:41:19.177Z,49.98
2023-04-17T17:43:51.846Z,50.16
2023-04-17T17:46:25.469Z,50.05
2023-04-17T17:48:49.508Z,50.00
2023-04-17T17:51:23.954Z,50.20
2023-04-17T17:53:39.775Z,50.24
2023-04-17T17:56:15.775Z,50.46
2023-04-17T17:58:38.466Z,50.67
2023-04-17T18:01:11.252Z,50.62
2023-04-17T18:03:38.256Z,50.47
2023-04-17T18:06:11.741Z,50.37
2023-04-17T18:08:35.458Z,50.40
2023-04-17T18:11:09.123Z,50.49
2023-04-17T18:13:41.856Z,50.65
2023-04-17T18:16:15.326Z,49.69
2023-04-17T18:18:33.517Z,49.51
2023-04-17T18:20:59.817Z,49.74
2023-04-17T18:23:12.654Z,49.86
2023-04-17T18:25:28.705Z,49.83
2023-04-17T18:28:00.541Z,50.25
2023-04-17T18:30:14.827Z,50.49
2023-04-17T18:32:32.201Z,50.21
2023-04-17T18:35:05.449Z,49.74
2023-04-17T18:37:38.875Z,49.11
2023-04-17T18:39:55.189Z,49.48
2023-04-17T18:42:17.599Z,49.21
2023-04-17T18:44:39.995Z,48.77
2023-04-17T18:46:52.820Z,49.08
2023-04-17T18:49:18.971Z,48.49
2023-04-17T18:51:34.526Z,48.79
2023-04-17T18:53:58.624Z,49.51
2023-04-17T18:56:31.719Z,49.63
2023-04-17T18:59:04.616Z,50.38
2023-04-17T19:01:17.580Z,51.11
2023-04-17T19:03:31.855Z,51.77
2023-04-17T19:06:04.619Z,51.79
2023-04-17T19:08:28.585Z,51.93
2023-04-17T19:10:44.905Z,52.01
2023-04-17T19:13:11.197Z,52.05
2023-04-17T19:15:24.507Z,52.56
2023-04-17T19:17:47.336Z,52.97
2023-04-17T19:20:11.920Z,53.32
2023-04-17T19:22:44.771Z,53.85
2023-04-17T19:25:04.278Z,54.09
2023-04-17T19:27:31.521Z,54.25
2023-04-17T19:29:50.384Z,54.56
2023-04-17T19:32:18.052Z,55.07
2023-04-17T19:34:31.196Z,55.33
2023-04-17T19:36:45.222Z,55.53
2023-04-17T19:39:02.675Z,55.91
2023-04-17T19:41:23.012Z,56.30
2023-04-17T19:43:46.088Z,56.46
2023-04-17T19:46:02.407Z,56.76
2023-04-17T19:48:37.378Z,56.96
2023-04-17T19:51:11.671Z,57.38
2023-04-17T19:53:37.181Z,57.65
2023-04-17T19:55:54.000Z,57.91
2023-04-17T19:58:16.919Z,58.43
2023-04-17T20:00:43.892Z,58.63
2023-04-17T20:03:17.176Z,58.75
2023-04-17T20:05:30.397Z,59.46
2023-04-17T20:07:46.522Z,59.79
2023-04-17T20:10:17.895Z,60.25
2023-04-17T20:12:50.802Z,60.60
2023-04-17T20:15:03.687Z,60.91
2023-04-17T20:17:19.485Z,60.95
2023-04-17T20:19:43.458Z,60.90
2023-04-17T20:21:59.532Z,61.50
2023-04-17T20:24:32.513Z,61.45
2023-04-17T20:26:51.774Z,61.21
2023-04-17T20:29:14.931Z,61.15
2023-04-17T20:31:38.049Z,61.32
2023-04-17T20:34:02.830Z,61.45
2023-04-17T20:36:16.415Z,62.04
2023-04-17T20:38:30.371Z,62.55
2023-04-17T20:41:03.516Z,62.99
2023-04-17T20:43:27.427Z,63.54
2023-04-17T20:46:00.257Z,64.03
2023-04-17T20:48:33.210Z,63.32
2023-04-17T20:50:56.349Z,63.14
2023-04-17T20:53:29.270Z,63.31
2023-04-17T20:55:42.549Z,63.25
2023-04-17T20:58:06.008Z,63.85
2023-04-17T21:00:30.202Z,63.88
2023-04-17T21:03:03.655Z,64.87
2023-04-17T21:05:37.020Z,65.06
2023-04-17T21:08:11.551Z,65.21
2023-04-17T21:10:24.366Z,65.40
2023-04-17T21:12:57.972Z,65.70
2023-04-17T21:15:31.151Z,65.96
2023-04-17T21:18:04.370Z,66.40
2023-04-17T21:20:18.201Z,66.67
2023-04-17T21:22:42.803Z,67.22
2023-04-17T21:24:58.774Z,66.99
2023-04-17T21:27:31.889Z,67.45
2023-04-17T21:30:05.192Z,67.65
2023-04-17T21:32:32.655Z,67.67
2023-04-17T21:34:48.989Z,67.90
2023-04-17T21:37:21.956Z,67.86
2023-04-17T21:39:54.624Z,67.74
2023-04-17T21:42:11.049Z,67.55
2023-04-17T21:44:34.682Z,67.60
2023-04-17T21:46:49.284Z,67.69
2023-04-17T21:49:25.945Z,67.13
2023-04-17T21:51:48.576Z,66.74
2023-04-17T21:54:12.608Z,67.06
2023-04-17T21:56:26.407Z,66.85
2023-04-17T21:58:59.050Z,66.79
2023-04-17T22:01:32.139Z,66.16
2023-04-17T22:04:05.324Z,66.00
2023-04-17T22:06:40.485Z,66.15
2023-04-17T22:08:53.989Z,66.05
2023-04-17T22:11:29.310Z,65.76
2023-04-17T22:14:02.844Z,65.64
2023-04-17T22:16:16.561Z,65.00
2023-04-17T22:18:45.978Z,65.20
2023-04-17T22:21:18.795Z,65.13
2023-04-17T22:23:51.654Z,65.64
2023-04-17T22:26:15.430Z,64.70
2023-04-17T22:28:37.770Z,63.69
2023-04-17T22:31:02.457Z,63.79
2023-04-17T22:33:35.638Z,63.42
2023-04-17T22:36:08.658Z,61.99
2023-04-17T22:38:33.723Z,61.09
2023-04-17T22:41:09.204Z,61.27
2023-04-17T22:43:32.450Z,61.35
2023-04-17T22:46:05.195Z,61.32
2023-04-17T22:48:38.891Z,61.03
2023-04-17T22:50:54.663Z,60.31
2023-04-17T22:53:10.419Z,60.10
2023-04-17T22:55:37.276Z,60.01
2023-04-17T22:57:53.138Z,59.30
2023-04-17T23:00:27.351Z,58.21
2023-04-17T23:02:44.861Z,56.63
2023-04-17T23:04:57.959Z,57.24
2023-04-17T23:07:23.945Z,56.24
2023-04-17T23:09:37.323Z,56.16
2023-04-17T23:12:03.745Z,56.65
2023-04-17T23:14:27.416Z,55.76
2023-04-17T23:16:43.309Z,55.65
2023-04-17T23:18:57.031Z,54.70
2023-04-17T23:21:19.012Z,54.74
2023-04-17T23:23:35.260Z,54.53
2023-04-17T23:25:51.877Z,55.10
2023-04-17T23:28:31.447Z,54.77
2023-04-17T23:30:44.470Z,53.85
2023-04-17T23:33:08.393Z,54.87
2023-04-17T23:35:41.208Z,55.24
2023-04-17T23:38:14.376Z,55.08
2023-04-17T23:40:47.520Z,55.57
2023-04-17T23:43:21.325Z,56.11
2023-04-17T23:45:37.247Z,56.21
2023-04-17T23:47:50.118Z,56.67
2023-04-17T23:50:09.994Z,57.20
2023-04-17T23:52:33.930Z,57.05
2023-04-17T23:54:49.730Z,56.54
2023-04-17T23:57:03.312Z,56.48
2023-04-17T23:59:36.941Z,56.41
